sensor_id;sensor_type;location;lat;lon;timestamp;P1;durP1;ratioP1;P2;durP2;ratioP2
71696;SDS011;68167;59.120;37.898;2024-02-15T00:01:11;3.58;;;1.67;;
71696;SDS011;68167;59.120;37.898;2024-02-15T00:03:38;2.83;;;1.75;;
71696;SDS011;68167;59.120;37.898;2024-02-15T00:06:04;3.88;;;1.92;;
71696;SDS011;68167;59.120;37.898;2024-02-15T00:08:30;2.78;;;1.52;;
71696;SDS011;68167;59.120;37.898;2024-02-15T00:10:58;2.38;;;1.40;;
71696;SDS011;68167;59.120;37.898;2024-02-15T00:13:24;2.20;;;1.50;;
71696;SDS011;68167;59.120;37.898;2024-02-15T00:15:51;1.83;;;1.05;;
71696;SDS011;68167;59.120;37.898;2024-02-15T00:18:18;1.50;;;1.10;;
71696;SDS011;68167;59.120;37.898;2024-02-15T00:20:44;3.17;;;1.63;;
71696;SDS011;68167;59.120;37.898;2024-02-15T00:23:11;2.75;;;1.20;;
71696;SDS011;68167;59.120;37.898;2024-02-15T00:25:37;2.38;;;1.30;;
71696;SDS011;68167;59.120;37.898;2024-02-15T00:28:04;3.47;;;1.13;;
71696;SDS011;68167;59.120;37.898;2024-02-15T00:30:30;4.40;;;1.55;;
71696;SDS011;68167;59.120;37.898;2024-02-15T00:32:57;2.92;;;1.70;;
71696;SDS011;68167;59.120;37.898;2024-02-15T00:35:23;2.72;;;1.30;;
71696;SDS011;68167;59.120;37.898;2024-02-15T00:37:50;3.75;;;1.40;;
71696;SDS011;68167;59.120;37.898;2024-02-15T00:40:17;2.92;;;1.50;;
71696;SDS011;68167;59.120;37.898;2024-02-15T00:42:44;3.00;;;1.58;;
71696;SDS011;68167;59.120;37.898;2024-02-15T00:45:10;3.58;;;1.50;;
71696;SDS011;68167;59.120;37.898;2024-02-15T00:47:37;3.75;;;1.40;;
71696;SDS011;68167;59.120;37.898;2024-02-15T00:50:04;7.18;;;1.52;;
71696;SDS011;68167;59.120;37.898;2024-02-15T00:52:32;3.65;;;1.40;;
71696;SDS011;68167;59.120;37.898;2024-02-15T00:54:58;2.38;;;1.67;;
71696;SDS011;68167;59.120;37.898;2024-02-15T00:57:24;2.67;;;1.00;;
71696;SDS011;68167;59.120;37.898;2024-02-15T00:59:51;3.90;;;1.80;;
71696;SDS011;68167;59.120;37.898;2024-02-15T01:02:18;3.72;;;1.67;;
71696;SDS011;68167;59.120;37.898;2024-02-15T01:04:44;3.92;;;1.33;;
71696;SDS011;68167;59.120;37.898;2024-02-15T01:07:13;3.42;;;1.83;;
71696;SDS011;68167;59.120;37.898;2024-02-15T01:09:39;3.05;;;1.20;;
71696;SDS011;68167;59.120;37.898;2024-02-15T01:12:06;5.18;;;1.58;;
71696;SDS011;68167;59.120;37.898;2024-02-15T01:14:33;4.70;;;1.65;;
71696;SDS011;68167;59.120;37.898;2024-02-15T01:17:00;3.40;;;1.40;;
71696;SDS011;68167;59.120;37.898;2024-02-15T01:19:27;3.33;;;1.33;;
71696;SDS011;68167;59.120;37.898;2024-02-15T01:21:53;3.55;;;1.58;;
71696;SDS011;68167;59.120;37.898;2024-02-15T01:24:19;5.53;;;1.60;;
71696;SDS011;68167;59.120;37.898;2024-02-15T01:26:46;3.80;;;1.50;;
71696;SDS011;68167;59.120;37.898;2024-02-15T01:29:13;3.35;;;1.23;;
71696;SDS011;68167;59.120;37.898;2024-02-15T01:31:40;2.97;;;1.30;;
71696;SDS011;68167;59.120;37.898;2024-02-15T01:34:06;3.70;;;1.30;;
71696;SDS011;68167;59.120;37.898;2024-02-15T01:36:33;3.17;;;1.40;;
71696;SDS011;68167;59.120;37.898;2024-02-15T01:38:59;5.63;;;1.77;;
71696;SDS011;68167;59.120;37.898;2024-02-15T01:41:25;2.42;;;1.63;;
71696;SDS011;68167;59.120;37.898;2024-02-15T01:43:52;3.40;;;1.58;;
71696;SDS011;68167;59.120;37.898;2024-02-15T01:46:18;2.70;;;1.83;;
71696;SDS011;68167;59.120;37.898;2024-02-15T01:48:47;5.00;;;2.10;;
71696;SDS011;68167;59.120;37.898;2024-02-15T01:51:14;3.50;;;1.38;;
71696;SDS011;68167;59.120;37.898;2024-02-15T01:53:43;4.45;;;1.90;;
71696;SDS011;68167;59.120;37.898;2024-02-15T01:56:10;3.60;;;1.45;;
71696;SDS011;68167;59.120;37.898;2024-02-15T01:58:39;3.13;;;1.60;;
71696;SDS011;68167;59.120;37.898;2024-02-15T02:01:07;2.95;;;1.55;;
71696;SDS011;68167;59.120;37.898;2024-02-15T02:03:34;2.80;;;1.35;;
71696;SDS011;68167;59.120;37.898;2024-02-15T02:06:01;3.13;;;1.80;;
71696;SDS011;68167;59.120;37.898;2024-02-15T02:08:29;3.65;;;1.33;;
71696;SDS011;68167;59.120;37.898;2024-02-15T02:10:55;6.22;;;1.52;;
71696;SDS011;68167;59.120;37.898;2024-02-15T02:13:23;2.67;;;1.30;;
71696;SDS011;68167;59.120;37.898;2024-02-15T02:15:49;3.60;;;1.33;;
71696;SDS011;68167;59.120;37.898;2024-02-15T02:18:17;4.28;;;1.58;;
71696;SDS011;68167;59.120;37.898;2024-02-15T02:20:43;3.60;;;2.03;;
71696;SDS011;68167;59.120;37.898;2024-02-15T02:23:14;1.88;;;1.35;;
71696;SDS011;68167;59.120;37.898;2024-02-15T02:25:42;4.05;;;1.80;;
71696;SDS011;68167;59.120;37.898;2024-02-15T02:28:09;6.88;;;1.70;;
71696;SDS011;68167;59.120;37.898;2024-02-15T02:30:36;2.50;;;1.17;;
71696;SDS011;68167;59.120;37.898;2024-02-15T02:33:03;4.32;;;2.08;;
71696;SDS011;68167;59.120;37.898;2024-02-15T02:35:33;2.72;;;1.33;;
71696;SDS011;68167;59.120;37.898;2024-02-15T02:37:59;3.03;;;1.55;;
71696;SDS011;68167;59.120;37.898;2024-02-15T02:40:25;3.92;;;1.85;;
71696;SDS011;68167;59.120;37.898;2024-02-15T02:42:53;3.53;;;1.52;;
71696;SDS011;68167;59.120;37.898;2024-02-15T02:45:25;4.18;;;1.52;;
71696;SDS011;68167;59.120;37.898;2024-02-15T02:47:52;2.75;;;1.30;;
71696;SDS011;68167;59.120;37.898;2024-02-15T02:50:19;10.30;;;1.90;;
71696;SDS011;68167;59.120;37.898;2024-02-15T02:52:48;4.78;;;1.48;;
71696;SDS011;68167;59.120;37.898;2024-02-15T02:55:15;2.50;;;1.17;;
71696;SDS011;68167;59.120;37.898;2024-02-15T02:57:42;3.42;;;1.50;;
71696;SDS011;68167;59.120;37.898;2024-02-15T03:00:09;3.10;;;1.50;;
71696;SDS011;68167;59.120;37.898;2024-02-15T03:02:43;5.00;;;1.63;;
71696;SDS011;68167;59.120;37.898;2024-02-15T03:05:11;2.95;;;1.40;;
71696;SDS011;68167;59.120;37.898;2024-02-15T03:07:39;4.82;;;1.55;;
71696;SDS011;68167;59.120;37.898;2024-02-15T03:10:09;6.28;;;1.70;;
71696;SDS011;68167;59.120;37.898;2024-02-15T03:12:39;5.03;;;1.67;;
71696;SDS011;68167;59.120;37.898;2024-02-15T03:15:06;3.95;;;2.00;;
71696;SDS011;68167;59.120;37.898;2024-02-15T03:17:39;4.43;;;1.33;;
71696;SDS011;68167;59.120;37.898;2024-02-15T03:20:07;3.22;;;1.55;;
71696;SDS011;68167;59.120;37.898;2024-02-15T03:22:38;4.00;;;1.63;;
71696;SDS011;68167;59.120;37.898;2024-02-15T03:25:05;4.40;;;1.77;;
71696;SDS011;68167;59.120;37.898;2024-02-15T03:27:35;4.38;;;1.75;;
71696;SDS011;68167;59.120;37.898;2024-02-15T03:30:06;5.00;;;1.60;;
71696;SDS011;68167;59.120;37.898;2024-02-15T03:32:33;2.72;;;1.40;;
71696;SDS011;68167;59.120;37.898;2024-02-15T03:34:59;6.53;;;1.45;;
71696;SDS011;68167;59.120;37.898;2024-02-15T03:37:27;3.38;;;1.30;;
71696;SDS011;68167;59.120;37.898;2024-02-15T03:39:53;2.55;;;1.30;;
71696;SDS011;68167;59.120;37.898;2024-02-15T03:42:19;3.95;;;1.60;;
71696;SDS011;68167;59.120;37.898;2024-02-15T03:44:46;2.72;;;1.48;;
71696;SDS011;68167;59.120;37.898;2024-02-15T03:47:13;3.03;;;1.50;;
71696;SDS011;68167;59.120;37.898;2024-02-15T03:49:41;3.03;;;1.50;;
71696;SDS011;68167;59.120;37.898;2024-02-15T03:52:08;4.20;;;1.92;;
71696;SDS011;68167;59.120;37.898;2024-02-15T03:54:36;2.13;;;1.08;;
71696;SDS011;68167;59.120;37.898;2024-02-15T03:57:03;3.35;;;1.48;;
71696;SDS011;68167;59.120;37.898;2024-02-15T03:59:30;3.95;;;1.23;;
71696;SDS011;68167;59.120;37.898;2024-02-15T04:01:58;4.65;;;1.65;;
71696;SDS011;68167;59.120;37.898;2024-02-15T04:04:24;4.18;;;1.67;;
71696;SDS011;68167;59.120;37.898;2024-02-15T04:06:51;5.03;;;1.90;;
71696;SDS011;68167;59.120;37.898;2024-02-15T04:09:18;4.20;;;1.50;;
71696;SDS011;68167;59.120;37.898;2024-02-15T04:11:49;4.97;;;1.80;;
71696;SDS011;68167;59.120;37.898;2024-02-15T04:14:19;2.65;;;1.42;;
71696;SDS011;68167;59.120;37.898;2024-02-15T04:16:45;4.82;;;2.15;;
71696;SDS011;68167;59.120;37.898;2024-02-15T04:19:12;2.88;;;1.42;;
71696;SDS011;68167;59.120;37.898;2024-02-15T04:21:38;3.95;;;1.77;;
71696;SDS011;68167;59.120;37.898;2024-02-15T04:24:06;5.05;;;1.80;;
71696;SDS011;68167;59.120;37.898;2024-02-15T04:26:32;4.55;;;2.20;;
71696;SDS011;68167;59.120;37.898;2024-02-15T04:28:59;5.30;;;1.63;;
71696;SDS011;68167;59.120;37.898;2024-02-15T04:31:27;3.67;;;1.85;;
71696;SDS011;68167;59.120;37.898;2024-02-15T04:33:54;4.05;;;2.05;;
71696;SDS011;68167;59.120;37.898;2024-02-15T04:36:21;4.32;;;2.25;;
71696;SDS011;68167;59.120;37.898;2024-02-15T04:38:52;2.67;;;1.80;;
71696;SDS011;68167;59.120;37.898;2024-02-15T04:41:19;5.18;;;2.15;;
71696;SDS011;68167;59.120;37.898;2024-02-15T04:43:46;3.72;;;2.13;;
71696;SDS011;68167;59.120;37.898;2024-02-15T04:46:13;3.50;;;1.73;;
71696;SDS011;68167;59.120;37.898;2024-02-15T04:48:40;3.55;;;1.98;;
71696;SDS011;68167;59.120;37.898;2024-02-15T04:51:10;4.07;;;1.50;;
71696;SDS011;68167;59.120;37.898;2024-02-15T04:53:36;4.68;;;1.80;;
71696;SDS011;68167;59.120;37.898;2024-02-15T04:56:04;5.85;;;2.10;;
71696;SDS011;68167;59.120;37.898;2024-02-15T04:58:37;4.72;;;1.73;;
71696;SDS011;68167;59.120;37.898;2024-02-15T05:01:14;4.43;;;2.03;;
71696;SDS011;68167;59.120;37.898;2024-02-15T05:03:41;4.45;;;1.80;;
71696;SDS011;68167;59.120;37.898;2024-02-15T05:06:11;4.15;;;1.98;;
71696;SDS011;68167;59.120;37.898;2024-02-15T05:08:40;4.63;;;1.77;;
71696;SDS011;68167;59.120;37.898;2024-02-15T05:11:10;4.35;;;1.83;;
71696;SDS011;68167;59.120;37.898;2024-02-15T05:13:48;3.50;;;1.58;;
71696;SDS011;68167;59.120;37.898;2024-02-15T05:16:17;4.40;;;1.92;;
71696;SDS011;68167;59.120;37.898;2024-02-15T05:18:43;4.35;;;2.00;;
71696;SDS011;68167;59.120;37.898;2024-02-15T05:21:11;7.43;;;2.22;;
71696;SDS011;68167;59.120;37.898;2024-02-15T05:23:37;9.10;;;2.38;;
71696;SDS011;68167;59.120;37.898;2024-02-15T05:26:05;11.13;;;2.40;;
71696;SDS011;68167;59.120;37.898;2024-02-15T05:28:32;7.68;;;2.72;;
71696;SDS011;68167;59.120;37.898;2024-02-15T05:31:08;8.45;;;3.55;;
71696;SDS011;68167;59.120;37.898;2024-02-15T05:33:52;11.68;;;4.05;;
71696;SDS011;68167;59.120;37.898;2024-02-15T05:36:19;6.18;;;2.90;;
71696;SDS011;68167;59.120;37.898;2024-02-15T05:38:49;5.25;;;2.17;;
71696;SDS011;68167;59.120;37.898;2024-02-15T05:41:16;8.05;;;3.15;;
71696;SDS011;68167;59.120;37.898;2024-02-15T05:43:42;8.48;;;2.80;;
71696;SDS011;68167;59.120;37.898;2024-02-15T05:46:09;7.15;;;2.17;;
71696;SDS011;68167;59.120;37.898;2024-02-15T05:48:36;7.20;;;2.60;;
71696;SDS011;68167;59.120;37.898;2024-02-15T05:51:03;4.82;;;1.70;;
71696;SDS011;68167;59.120;37.898;2024-02-15T05:53:30;3.25;;;1.92;;
71696;SDS011;68167;59.120;37.898;2024-02-15T05:55:58;4.88;;;2.38;;
71696;SDS011;68167;59.120;37.898;2024-02-15T05:58:25;6.35;;;2.10;;
71696;SDS011;68167;59.120;37.898;2024-02-15T06:00:51;9.25;;;2.30;;
71696;SDS011;68167;59.120;37.898;2024-02-15T06:03:19;3.33;;;2.05;;
71696;SDS011;68167;59.120;37.898;2024-02-15T06:05:48;6.35;;;2.25;;
71696;SDS011;68167;59.120;37.898;2024-02-15T06:08:14;7.53;;;2.00;;
71696;SDS011;68167;59.120;37.898;2024-02-15T06:10:41;6.05;;;1.88;;
71696;SDS011;68167;59.120;37.898;2024-02-15T06:13:07;3.05;;;1.67;;
71696;SDS011;68167;59.120;37.898;2024-02-15T06:15:36;4.80;;;2.13;;
71696;SDS011;68167;59.120;37.898;2024-02-15T06:18:02;6.32;;;2.63;;
71696;SDS011;68167;59.120;37.898;2024-02-15T06:20:35;4.20;;;1.88;;
71696;SDS011;68167;59.120;37.898;2024-02-15T06:23:02;4.18;;;1.88;;
71696;SDS011;68167;59.120;37.898;2024-02-15T06:25:34;4.55;;;2.40;;
71696;SDS011;68167;59.120;37.898;2024-02-15T06:28:00;6.32;;;2.70;;
71696;SDS011;68167;59.120;37.898;2024-02-15T06:30:39;4.55;;;2.33;;
71696;SDS011;68167;59.120;37.898;2024-02-15T06:33:24;4.95;;;2.42;;
71696;SDS011;68167;59.120;37.898;2024-02-15T06:36:09;5.40;;;2.53;;
71696;SDS011;68167;59.120;37.898;2024-02-15T06:38:54;5.70;;;2.40;;
71696;SDS011;68167;59.120;37.898;2024-02-15T06:41:38;5.07;;;2.35;;
71696;SDS011;68167;59.120;37.898;2024-02-15T06:44:06;7.18;;;2.25;;
71696;SDS011;68167;59.120;37.898;2024-02-15T06:46:33;4.22;;;2.08;;
71696;SDS011;68167;59.120;37.898;2024-02-15T06:48:59;4.95;;;2.17;;
71696;SDS011;68167;59.120;37.898;2024-02-15T06:51:25;6.43;;;2.22;;
71696;SDS011;68167;59.120;37.898;2024-02-15T06:53:51;6.30;;;1.85;;
71696;SDS011;68167;59.120;37.898;2024-02-15T06:56:21;4.53;;;2.20;;
71696;SDS011;68167;59.120;37.898;2024-02-15T06:58:49;5.13;;;2.35;;
71696;SDS011;68167;59.120;37.898;2024-02-15T07:01:16;4.25;;;2.50;;
71696;SDS011;68167;59.120;37.898;2024-02-15T07:03:43;4.15;;;1.92;;
71696;SDS011;68167;59.120;37.898;2024-02-15T07:06:13;7.10;;;2.53;;
71696;SDS011;68167;59.120;37.898;2024-02-15T07:08:40;3.70;;;1.75;;
71696;SDS011;68167;59.120;37.898;2024-02-15T07:11:06;6.97;;;2.60;;
71696;SDS011;68167;59.120;37.898;2024-02-15T07:13:35;3.97;;;2.00;;
71696;SDS011;68167;59.120;37.898;2024-02-15T07:16:08;7.72;;;2.45;;
71696;SDS011;68167;59.120;37.898;2024-02-15T07:18:34;4.63;;;2.00;;
71696;SDS011;68167;59.120;37.898;2024-02-15T07:21:00;5.45;;;2.22;;
71696;SDS011;68167;59.120;37.898;2024-02-15T07:23:29;7.70;;;2.38;;
71696;SDS011;68167;59.120;37.898;2024-02-15T07:25:55;7.85;;;2.22;;
71696;SDS011;68167;59.120;37.898;2024-02-15T07:28:21;4.95;;;2.05;;
71696;SDS011;68167;59.120;37.898;2024-02-15T07:30:48;4.22;;;1.95;;
71696;SDS011;68167;59.120;37.898;2024-02-15T07:33:17;5.30;;;2.22;;
71696;SDS011;68167;59.120;37.898;2024-02-15T07:35:43;3.90;;;2.05;;
71696;SDS011;68167;59.120;37.898;2024-02-15T07:38:10;8.38;;;2.45;;
71696;SDS011;68167;59.120;37.898;2024-02-15T07:40:37;5.20;;;1.90;;
71696;SDS011;68167;59.120;37.898;2024-02-15T07:43:05;3.88;;;1.52;;
71696;SDS011;68167;59.120;37.898;2024-02-15T07:45:32;5.40;;;2.13;;
71696;SDS011;68167;59.120;37.898;2024-02-15T07:48:01;2.67;;;1.98;;
71696;SDS011;68167;59.120;37.898;2024-02-15T07:50:30;3.15;;;1.52;;
71696;SDS011;68167;59.120;37.898;2024-02-15T07:52:56;6.75;;;2.47;;
71696;SDS011;68167;59.120;37.898;2024-02-15T07:55:23;6.93;;;2.58;;
71696;SDS011;68167;59.120;37.898;2024-02-15T07:57:50;6.25;;;1.98;;
71696;SDS011;68167;59.120;37.898;2024-02-15T08:00:17;4.22;;;2.40;;
71696;SDS011;68167;59.120;37.898;2024-02-15T08:02:43;9.07;;;2.83;;
71696;SDS011;68167;59.120;37.898;2024-02-15T08:05:10;4.70;;;2.20;;
71696;SDS011;68167;59.120;37.898;2024-02-15T08:07:38;6.55;;;2.10;;
71696;SDS011;68167;59.120;37.898;2024-02-15T08:10:07;4.10;;;1.98;;
71696;SDS011;68167;59.120;37.898;2024-02-15T08:12:41;4.50;;;2.10;;
71696;SDS011;68167;59.120;37.898;2024-02-15T08:15:09;5.50;;;2.25;;
71696;SDS011;68167;59.120;37.898;2024-02-15T08:17:41;6.72;;;2.33;;
71696;SDS011;68167;59.120;37.898;2024-02-15T08:20:09;4.25;;;2.30;;
71696;SDS011;68167;59.120;37.898;2024-02-15T08:22:37;4.40;;;2.08;;
71696;SDS011;68167;59.120;37.898;2024-02-15T08:25:08;5.55;;;2.67;;
71696;SDS011;68167;59.120;37.898;2024-02-15T08:27:39;3.35;;;2.00;;
71696;SDS011;68167;59.120;37.898;2024-02-15T08:30:10;3.83;;;2.30;;
71696;SDS011;68167;59.120;37.898;2024-02-15T08:32:38;3.55;;;2.53;;
71696;SDS011;68167;59.120;37.898;2024-02-15T08:35:12;7.87;;;2.73;;
71696;SDS011;68167;59.120;37.898;2024-02-15T08:37:39;3.55;;;1.90;;
71696;SDS011;68167;59.120;37.898;2024-02-15T08:40:08;5.25;;;2.50;;
71696;SDS011;68167;59.120;37.898;2024-02-15T08:42:42;3.67;;;2.30;;
71696;SDS011;68167;59.120;37.898;2024-02-15T08:45:09;8.45;;;2.80;;
71696;SDS011;68167;59.120;37.898;2024-02-15T08:47:36;9.77;;;2.53;;
71696;SDS011;68167;59.120;37.898;2024-02-15T08:50:06;7.33;;;2.20;;
71696;SDS011;68167;59.120;37.898;2024-02-15T08:52:36;8.03;;;2.67;;
71696;SDS011;68167;59.120;37.898;2024-02-15T08:55:09;5.00;;;2.53;;
71696;SDS011;68167;59.120;37.898;2024-02-15T08:57:36;6.70;;;2.30;;
71696;SDS011;68167;59.120;37.898;2024-02-15T09:00:06;6.83;;;2.10;;
71696;SDS011;68167;59.120;37.898;2024-02-15T09:02:39;6.73;;;2.40;;
71696;SDS011;68167;59.120;37.898;2024-02-15T09:05:06;4.30;;;2.00;;
71696;SDS011;68167;59.120;37.898;2024-02-15T09:07:33;4.37;;;2.37;;
71696;SDS011;68167;59.120;37.898;2024-02-15T09:09:59;7.03;;;2.13;;
71696;SDS011;68167;59.120;37.898;2024-02-15T09:12:25;6.70;;;2.00;;
71696;SDS011;68167;59.120;37.898;2024-02-15T09:14:51;4.80;;;1.97;;
71696;SDS011;68167;59.120;37.898;2024-02-15T09:17:18;5.10;;;2.30;;
71696;SDS011;68167;59.120;37.898;2024-02-15T09:19:46;5.30;;;2.20;;
71696;SDS011;68167;59.120;37.898;2024-02-15T09:22:15;6.00;;;2.20;;
71696;SDS011;68167;59.120;37.898;2024-02-15T09:24:41;7.23;;;2.23;;
71696;SDS011;68167;59.120;37.898;2024-02-15T09:27:08;4.57;;;2.30;;
71696;SDS011;68167;59.120;37.898;2024-02-15T09:29:38;6.17;;;2.70;;
71696;SDS011;68167;59.120;37.898;2024-02-15T09:32:06;5.67;;;2.47;;
71696;SDS011;68167;59.120;37.898;2024-02-15T09:34:32;5.53;;;2.73;;
71696;SDS011;68167;59.120;37.898;2024-02-15T09:36:59;5.53;;;2.50;;
71696;SDS011;68167;59.120;37.898;2024-02-15T09:39:25;6.00;;;2.60;;
71696;SDS011;68167;59.120;37.898;2024-02-15T09:41:51;4.70;;;2.37;;
71696;SDS011;68167;59.120;37.898;2024-02-15T09:44:27;3.67;;;2.10;;
71696;SDS011;68167;59.120;37.898;2024-02-15T09:47:01;6.03;;;1.93;;
71696;SDS011;68167;59.120;37.898;2024-02-15T09:49:36;4.30;;;1.93;;
71696;SDS011;68167;59.120;37.898;2024-02-15T09:52:08;4.40;;;2.37;;
71696;SDS011;68167;59.120;37.898;2024-02-15T09:54:41;3.40;;;1.90;;
71696;SDS011;68167;59.120;37.898;2024-02-15T09:57:09;4.37;;;2.50;;
71696;SDS011;68167;59.120;37.898;2024-02-15T09:59:37;6.07;;;2.97;;
71696;SDS011;68167;59.120;37.898;2024-02-15T10:02:04;3.37;;;2.07;;
71696;SDS011;68167;59.120;37.898;2024-02-15T10:04:39;5.70;;;2.57;;
71696;SDS011;68167;59.120;37.898;2024-02-15T10:07:06;5.83;;;2.20;;
71696;SDS011;68167;59.120;37.898;2024-02-15T10:09:35;7.03;;;2.63;;
71696;SDS011;68167;59.120;37.898;2024-02-15T10:12:05;5.07;;;2.30;;
71696;SDS011;68167;59.120;37.898;2024-02-15T10:14:35;5.10;;;2.50;;
71696;SDS011;68167;59.120;37.898;2024-02-15T10:17:10;6.53;;;2.73;;
71696;SDS011;68167;59.120;37.898;2024-02-15T10:19:39;6.23;;;2.50;;
71696;SDS011;68167;59.120;37.898;2024-02-15T10:22:08;4.37;;;2.20;;
71696;SDS011;68167;59.120;37.898;2024-02-15T10:24:35;5.80;;;2.23;;
71696;SDS011;68167;59.120;37.898;2024-02-15T10:27:05;5.13;;;2.37;;
71696;SDS011;68167;59.120;37.898;2024-02-15T10:29:36;6.40;;;2.53;;
71696;SDS011;68167;59.120;37.898;2024-02-15T10:32:03;5.93;;;2.27;;
71696;SDS011;68167;59.120;37.898;2024-02-15T10:34:43;7.43;;;2.70;;
71696;SDS011;68167;59.120;37.898;2024-02-15T10:37:11;6.03;;;2.47;;
71696;SDS011;68167;59.120;37.898;2024-02-15T10:39:45;7.40;;;2.83;;
71696;SDS011;68167;59.120;37.898;2024-02-15T10:42:12;6.67;;;2.67;;
71696;SDS011;68167;59.120;37.898;2024-02-15T10:44:39;5.40;;;2.80;;
71696;SDS011;68167;59.120;37.898;2024-02-15T10:47:07;4.73;;;2.40;;
71696;SDS011;68167;59.120;37.898;2024-02-15T10:49:34;5.23;;;2.67;;
71696;SDS011;68167;59.120;37.898;2024-02-15T10:52:04;5.00;;;2.60;;
71696;SDS011;68167;59.120;37.898;2024-02-15T10:57:09;7.40;;;2.80;;
71696;SDS011;68167;59.120;37.898;2024-02-15T10:59:38;4.97;;;2.43;;
71696;SDS011;68167;59.120;37.898;2024-02-15T11:04:52;4.33;;;2.67;;
71696;SDS011;68167;59.120;37.898;2024-02-15T11:07:24;4.33;;;2.23;;
71696;SDS011;68167;59.120;37.898;2024-02-15T11:09:53;6.97;;;3.23;;
71696;SDS011;68167;59.120;37.898;2024-02-15T11:12:23;6.33;;;2.37;;
71696;SDS011;68167;59.120;37.898;2024-02-15T11:14:52;6.13;;;2.50;;
71696;SDS011;68167;59.120;37.898;2024-02-15T11:20:09;4.80;;;2.37;;
71696;SDS011;68167;59.120;37.898;2024-02-15T11:22:37;4.43;;;2.03;;
71696;SDS011;68167;59.120;37.898;2024-02-15T11:25:04;4.87;;;2.47;;
71696;SDS011;68167;59.120;37.898;2024-02-15T11:27:38;6.77;;;2.67;;
71696;SDS011;68167;59.120;37.898;2024-02-15T11:30:06;5.47;;;2.13;;
71696;SDS011;68167;59.120;37.898;2024-02-15T11:32:44;6.27;;;2.67;;
71696;SDS011;68167;59.120;37.898;2024-02-15T11:35:19;3.97;;;2.40;;
71696;SDS011;68167;59.120;37.898;2024-02-15T11:40:22;6.10;;;2.30;;
71696;SDS011;68167;59.120;37.898;2024-02-15T11:42:59;5.77;;;2.87;;
71696;SDS011;68167;59.120;37.898;2024-02-15T11:45:26;7.37;;;3.20;;
71696;SDS011;68167;59.120;37.898;2024-02-15T11:47:58;5.23;;;2.73;;
71696;SDS011;68167;59.120;37.898;2024-02-15T11:50:27;5.17;;;2.60;;
71696;SDS011;68167;59.120;37.898;2024-02-15T11:53:01;4.40;;;2.40;;
71696;SDS011;68167;59.120;37.898;2024-02-15T11:55:35;5.47;;;2.50;;
71696;SDS011;68167;59.120;37.898;2024-02-15T11:58:02;7.93;;;4.10;;
71696;SDS011;68167;59.120;37.898;2024-02-15T12:00:35;5.67;;;3.00;;
71696;SDS011;68167;59.120;37.898;2024-02-15T12:03:21;5.00;;;2.50;;
71696;SDS011;68167;59.120;37.898;2024-02-15T12:09:26;5.77;;;2.37;;
71696;SDS011;68167;59.120;37.898;2024-02-15T12:12:11;5.43;;;2.13;;
71696;SDS011;68167;59.120;37.898;2024-02-15T12:15:00;6.53;;;2.43;;
71696;SDS011;68167;59.120;37.898;2024-02-15T12:17:46;6.83;;;2.83;;
71696;SDS011;68167;59.120;37.898;2024-02-15T12:20:31;6.50;;;2.33;;
71696;SDS011;68167;59.120;37.898;2024-02-15T12:22:58;5.37;;;2.10;;
71696;SDS011;68167;59.120;37.898;2024-02-15T12:25:29;3.73;;;2.07;;
71696;SDS011;68167;59.120;37.898;2024-02-15T12:27:59;3.83;;;2.17;;
71696;SDS011;68167;59.120;37.898;2024-02-15T12:30:32;4.03;;;2.20;;
71696;SDS011;68167;59.120;37.898;2024-02-15T12:33:11;3.87;;;2.30;;
71696;SDS011;68167;59.120;37.898;2024-02-15T12:35:44;6.77;;;2.13;;
71696;SDS011;68167;59.120;37.898;2024-02-15T12:38:14;4.22;;;2.40;;
71696;SDS011;68167;59.120;37.898;2024-02-15T12:40:42;13.43;;;2.30;;
71696;SDS011;68167;59.120;37.898;2024-02-15T12:43:12;5.73;;;2.30;;
71696;SDS011;68167;59.120;37.898;2024-02-15T12:45:39;9.00;;;2.70;;
71696;SDS011;68167;59.120;37.898;2024-02-15T12:48:07;3.27;;;1.67;;
71696;SDS011;68167;59.120;37.898;2024-02-15T12:50:36;5.40;;;2.43;;
71696;SDS011;68167;59.120;37.898;2024-02-15T12:53:02;3.90;;;2.33;;
71696;SDS011;68167;59.120;37.898;2024-02-15T12:55:32;8.87;;;2.43;;
71696;SDS011;68167;59.120;37.898;2024-02-15T12:58:09;6.25;;;2.80;;
71696;SDS011;68167;59.120;37.898;2024-02-15T13:00:40;7.90;;;2.40;;
71696;SDS011;68167;59.120;37.898;2024-02-15T13:03:07;7.37;;;2.80;;
71696;SDS011;68167;59.120;37.898;2024-02-15T13:05:35;3.87;;;1.97;;
71696;SDS011;68167;59.120;37.898;2024-02-15T13:08:02;10.27;;;2.37;;
71696;SDS011;68167;59.120;37.898;2024-02-15T13:10:36;6.90;;;2.53;;
71696;SDS011;68167;59.120;37.898;2024-02-15T13:13:04;8.10;;;2.47;;
71696;SDS011;68167;59.120;37.898;2024-02-15T13:15:31;6.75;;;2.83;;
71696;SDS011;68167;59.120;37.898;2024-02-15T13:18:02;13.05;;;2.15;;
71696;SDS011;68167;59.120;37.898;2024-02-15T13:20:30;8.30;;;3.17;;
71696;SDS011;68167;59.120;37.898;2024-02-15T13:23:00;4.87;;;2.27;;
71696;SDS011;68167;59.120;37.898;2024-02-15T13:25:37;8.68;;;2.83;;
71696;SDS011;68167;59.120;37.898;2024-02-15T13:28:05;6.85;;;2.55;;
71696;SDS011;68167;59.120;37.898;2024-02-15T13:30:32;4.43;;;2.25;;
71696;SDS011;68167;59.120;37.898;2024-02-15T13:32:58;4.80;;;2.47;;
71696;SDS011;68167;59.120;37.898;2024-02-15T13:35:25;6.53;;;2.20;;
71696;SDS011;68167;59.120;37.898;2024-02-15T13:37:52;7.00;;;2.72;;
71696;SDS011;68167;59.120;37.898;2024-02-15T13:40:24;4.70;;;2.60;;
71696;SDS011;68167;59.120;37.898;2024-02-15T13:42:56;5.72;;;2.28;;
71696;SDS011;68167;59.120;37.898;2024-02-15T13:45:31;4.82;;;2.08;;
71696;SDS011;68167;59.120;37.898;2024-02-15T13:48:06;8.45;;;3.78;;
71696;SDS011;68167;59.120;37.898;2024-02-15T13:50:33;6.07;;;2.80;;
71696;SDS011;68167;59.120;37.898;2024-02-15T13:53:00;5.27;;;2.63;;
71696;SDS011;68167;59.120;37.898;2024-02-15T13:55:27;7.23;;;3.17;;
71696;SDS011;68167;59.120;37.898;2024-02-15T13:57:55;5.23;;;2.20;;
71696;SDS011;68167;59.120;37.898;2024-02-15T14:00:22;5.10;;;2.55;;
71696;SDS011;68167;59.120;37.898;2024-02-15T14:02:56;8.57;;;3.03;;
71696;SDS011;68167;59.120;37.898;2024-02-15T14:05:24;11.50;;;2.57;;
71696;SDS011;68167;59.120;37.898;2024-02-15T14:08:00;4.40;;;2.10;;
71696;SDS011;68167;59.120;37.898;2024-02-15T14:10:31;3.70;;;2.10;;
71696;SDS011;68167;59.120;37.898;2024-02-15T14:13:00;5.68;;;2.65;;
71696;SDS011;68167;59.120;37.898;2024-02-15T14:15:37;5.67;;;2.23;;
71696;SDS011;68167;59.120;37.898;2024-02-15T14:18:07;6.70;;;2.50;;
71696;SDS011;68167;59.120;37.898;2024-02-15T14:20:39;5.55;;;2.80;;
71696;SDS011;68167;59.120;37.898;2024-02-15T14:23:08;10.05;;;3.55;;
71696;SDS011;68167;59.120;37.898;2024-02-15T14:25:39;5.47;;;2.37;;
71696;SDS011;68167;59.120;37.898;2024-02-15T14:28:05;5.95;;;2.50;;
71696;SDS011;68167;59.120;37.898;2024-02-15T14:30:34;6.70;;;3.17;;
71696;SDS011;68167;59.120;37.898;2024-02-15T14:33:19;9.23;;;2.67;;
71696;SDS011;68167;59.120;37.898;2024-02-15T14:35:45;8.43;;;3.00;;
71696;SDS011;68167;59.120;37.898;2024-02-15T14:38:12;9.43;;;2.90;;
71696;SDS011;68167;59.120;37.898;2024-02-15T14:40:42;4.70;;;2.42;;
71696;SDS011;68167;59.120;37.898;2024-02-15T14:43:11;4.15;;;2.05;;
71696;SDS011;68167;59.120;37.898;2024-02-15T14:45:41;6.35;;;3.35;;
71696;SDS011;68167;59.120;37.898;2024-02-15T14:48:07;6.70;;;2.50;;
71696;SDS011;68167;59.120;37.898;2024-02-15T14:50:39;4.68;;;2.22;;
71696;SDS011;68167;59.120;37.898;2024-02-15T14:53:08;6.25;;;2.63;;
71696;SDS011;68167;59.120;37.898;2024-02-15T14:55:35;5.32;;;2.63;;
71696;SDS011;68167;59.120;37.898;2024-02-15T14:58:07;10.50;;;2.85;;